sensor_id;sensor_type;location;lat;lon;timestamp;pressure;altitude;pressure_sealevel;temperature;humidity
18569;BME280;14780;48.316;-1.050;2023-07-30T00:01:46;98987.16;;;24.78;46.67
18569;BME280;14780;48.316;-1.050;2023-07-30T00:04:31;98991.78;;;24.82;46.41
18569;BME280;14780;48.316;-1.050;2023-07-30T00:07:15;98988.00;;;24.78;46.54
18569;BME280;14780;48.316;-1.050;2023-07-30T00:10:00;98978.97;;;24.78;46.54
18569;BME280;14780;48.316;-1.050;2023-07-30T00:12:44;98988.03;;;24.68;46.75
18569;BME280;14780;48.316;-1.050;2023-07-30T00:15:29;98981.44;;;24.74;46.47
18569;BME280;14780;48.316;-1.050;2023-07-30T00:18:14;98985.81;;;24.70;46.57
18569;BME280;14780;48.316;-1.050;2023-07-30T00:20:59;98980.38;;;24.65;46.79
18569;BME280;14780;48.316;-1.050;2023-07-30T00:23:44;98982.56;;;24.68;46.58
18569;BME280;14780;48.316;-1.050;2023-07-30T00:26:29;98983.38;;;24.69;46.33
18569;BME280;14780;48.316;-1.050;2023-07-30T00:29:14;98984.22;;;24.64;46.46
18569;BME280;14780;48.316;-1.050;2023-07-30T00:31:59;98984.50;;;24.63;46.51
18569;BME280;14780;48.316;-1.050;2023-07-30T00:34:44;98987.50;;;24.61;46.46
18569;BME280;14780;48.316;-1.050;2023-07-30T00:37:28;98990.25;;;24.61;46.53
18569;BME280;14780;48.316;-1.050;2023-07-30T00:40:13;98993.81;;;24.57;46.45
18569;BME280;14780;48.316;-1.050;2023-07-30T00:42:57;98989.44;;;24.61;46.33
18569;BME280;14780;48.316;-1.050;2023-07-30T00:45:44;98996.28;;;24.58;46.53
18569;BME280;14780;48.316;-1.050;2023-07-30T00:48:30;98991.34;;;24.55;46.41
18569;BME280;14780;48.316;-1.050;2023-07-30T00:51:15;98996.00;;;24.55;46.42
18569;BME280;14780;48.316;-1.050;2023-07-30T00:54:01;98998.47;;;24.56;46.46
18569;BME280;14780;48.316;-1.050;2023-07-30T00:56:51;98999.00;;;24.53;46.48
18569;BME280;14780;48.316;-1.050;2023-07-30T00:59:37;98998.72;;;24.60;46.28
18569;BME280;14780;48.316;-1.050;2023-07-30T01:02:22;98993.00;;;24.51;46.44
18569;BME280;14780;48.316;-1.050;2023-07-30T01:05:07;98994.63;;;24.52;46.43
18569;BME280;14780;48.316;-1.050;2023-07-30T01:07:52;98999.56;;;24.50;46.42
18569;BME280;14780;48.316;-1.050;2023-07-30T01:10:38;99003.94;;;24.46;46.38
18569;BME280;14780;48.316;-1.050;2023-07-30T01:13:25;99009.41;;;24.46;46.37
18569;BME280;14780;48.316;-1.050;2023-07-30T01:16:10;99016.81;;;24.46;46.34
18569;BME280;14780;48.316;-1.050;2023-07-30T01:18:56;99008.03;;;24.49;46.24
18569;BME280;14780;48.316;-1.050;2023-07-30T01:21:41;99003.41;;;24.44;46.20
18569;BME280;14780;48.316;-1.050;2023-07-30T01:24:25;99008.88;;;24.49;46.12
18569;BME280;14780;48.316;-1.050;2023-07-30T01:27:16;99004.50;;;24.43;46.44
18569;BME280;14780;48.316;-1.050;2023-07-30T01:32:58;99009.41;;;24.41;46.31
18569;BME280;14780;48.316;-1.050;2023-07-30T01:35:43;99014.34;;;24.39;46.14
18569;BME280;14780;48.316;-1.050;2023-07-30T01:38:30;99014.34;;;24.34;46.24
18569;BME280;14780;48.316;-1.050;2023-07-30T01:41:15;99011.63;;;24.34;46.28
18569;BME280;14780;48.316;-1.050;2023-07-30T01:44:00;99012.19;;;24.36;46.22
18569;BME280;14780;48.316;-1.050;2023-07-30T01:46:44;99020.38;;;24.36;46.22
18569;BME280;14780;48.316;-1.050;2023-07-30T01:49:29;99014.09;;;24.36;46.15
18569;BME280;14780;48.316;-1.050;2023-07-30T01:52:14;99014.34;;;24.39;46.03
18569;BME280;14780;48.316;-1.050;2023-07-30T01:54:59;99007.25;;;24.33;46.29
18569;BME280;14780;48.316;-1.050;2023-07-30T01:57:45;99002.63;;;24.34;46.24
18569;BME280;14780;48.316;-1.050;2023-07-30T02:00:30;99001.78;;;24.33;46.08
18569;BME280;14780;48.316;-1.050;2023-07-30T02:03:14;99015.44;;;24.33;45.94
18569;BME280;14780;48.316;-1.050;2023-07-30T02:05:59;99008.09;;;24.34;45.93
18569;BME280;14780;48.316;-1.050;2023-07-30T02:08:44;99012.75;;;24.28;45.97
18569;BME280;14780;48.316;-1.050;2023-07-30T02:11:28;99012.19;;;24.26;46.20
18569;BME280;14780;48.316;-1.050;2023-07-30T02:14:17;99011.34;;;24.31;46.24
18569;BME280;14780;48.316;-1.050;2023-07-30T02:17:02;99017.91;;;24.30;45.89
18569;BME280;14780;48.316;-1.050;2023-07-30T02:19:47;99020.94;;;24.23;46.24
18569;BME280;14780;48.316;-1.050;2023-07-30T02:22:32;99016.28;;;24.24;46.14
18569;BME280;14780;48.316;-1.050;2023-07-30T02:25:17;99024.22;;;24.25;45.91
18569;BME280;14780;48.316;-1.050;2023-07-30T02:28:02;99023.41;;;24.25;46.10
18569;BME280;14780;48.316;-1.050;2023-07-30T02:30:47;99028.88;;;24.25;46.11
18569;BME280;14780;48.316;-1.050;2023-07-30T02:33:31;99018.22;;;24.23;46.28
18569;BME280;14780;48.316;-1.050;2023-07-30T02:36:16;99023.97;;;24.17;46.18
18569;BME280;14780;48.316;-1.050;2023-07-30T02:39:01;99023.16;;;24.21;45.96
18569;BME280;14780;48.316;-1.050;2023-07-30T02:41:45;99027.78;;;24.16;46.25
18569;BME280;14780;48.316;-1.050;2023-07-30T02:44:30;99022.03;;;24.12;46.25
18569;BME280;14780;48.316;-1.050;2023-07-30T02:47:14;99024.25;;;24.10;45.99
18569;BME280;14780;48.316;-1.050;2023-07-30T02:49:59;99014.94;;;24.11;45.90
18569;BME280;14780;48.316;-1.050;2023-07-30T02:52:43;99022.06;;;24.07;46.05
18569;BME280;14780;48.316;-1.050;2023-07-30T02:55:28;99018.50;;;24.12;46.08
18569;BME280;14780;48.316;-1.050;2023-07-30T02:58:13;99026.72;;;24.07;45.95
18569;BME280;14780;48.316;-1.050;2023-07-30T03:01:08;99026.44;;;24.08;46.11
18569;BME280;14780;48.316;-1.050;2023-07-30T03:03:54;99025.34;;;24.09;46.00
18569;BME280;14780;48.316;-1.050;2023-07-30T03:06:38;99017.16;;;24.09;46.06
18569;BME280;14780;48.316;-1.050;2023-07-30T03:09:23;99020.97;;;24.08;46.01
18569;BME280;14780;48.316;-1.050;2023-07-30T03:12:07;99024.78;;;24.12;45.96
18569;BME280;14780;48.316;-1.050;2023-07-30T03:14:52;99020.97;;;24.08;46.06
18569;BME280;14780;48.316;-1.050;2023-07-30T03:17:37;99027.25;;;24.09;45.93
18569;BME280;14780;48.316;-1.050;2023-07-30T03:20:22;99030.28;;;24.07;45.91
18569;BME280;14780;48.316;-1.050;2023-07-30T03:23:07;99029.72;;;24.10;45.94
18569;BME280;14780;48.316;-1.050;2023-07-30T03:25:51;99028.91;;;24.10;45.75
18569;BME280;14780;48.316;-1.050;2023-07-30T03:28:36;99038.75;;;24.06;45.84
18569;BME280;14780;48.316;-1.050;2023-07-30T03:31:21;99042.84;;;24.08;46.08
18569;BME280;14780;48.316;-1.050;2023-07-30T03:34:05;99045.56;;;24.03;46.00
18569;BME280;14780;48.316;-1.050;2023-07-30T03:36:50;99049.41;;;24.02;45.97
18569;BME280;14780;48.316;-1.050;2023-07-30T03:39:35;99044.22;;;24.06;46.05
18569;BME280;14780;48.316;-1.050;2023-07-30T03:42:20;99051.59;;;24.00;46.11
18569;BME280;14780;48.316;-1.050;2023-07-30T03:45:05;99051.59;;;24.00;46.08
18569;BME280;14780;48.316;-1.050;2023-07-30T03:47:50;99047.75;;;24.01;46.04
18569;BME280;14780;48.316;-1.050;2023-07-30T03:50:34;99052.69;;;23.99;45.97
18569;BME280;14780;48.316;-1.050;2023-07-30T03:53:19;99048.56;;;24.02;46.00
18569;BME280;14780;48.316;-1.050;2023-07-30T03:56:04;99051.31;;;23.97;46.04
18569;BME280;14780;48.316;-1.050;2023-07-30T03:58:49;99060.06;;;23.94;46.11
18569;BME280;14780;48.316;-1.050;2023-07-30T04:01:34;99057.03;;;23.90;46.08
18569;BME280;14780;48.316;-1.050;2023-07-30T04:04:19;99066.34;;;23.94;46.08
18569;BME280;14780;48.316;-1.050;2023-07-30T04:07:03;99069.34;;;23.93;46.18
18569;BME280;14780;48.316;-1.050;2023-07-30T04:09:48;99077.81;;;23.91;45.91
18569;BME280;14780;48.316;-1.050;2023-07-30T04:12:32;99074.81;;;23.88;46.23
18569;BME280;14780;48.316;-1.050;2023-07-30T04:15:17;99083.84;;;23.88;46.15
18569;BME280;14780;48.316;-1.050;2023-07-30T04:18:02;99096.13;;;23.86;46.28
18569;BME280;14780;48.316;-1.050;2023-07-30T04:20:47;99093.94;;;23.88;46.11
18569;BME280;14780;48.316;-1.050;2023-07-30T04:23:32;99090.91;;;23.84;46.34
18569;BME280;14780;48.316;-1.050;2023-07-30T04:26:17;99093.66;;;23.89;46.11
18569;BME280;14780;48.316;-1.050;2023-07-30T04:29:02;99090.41;;;23.87;46.11
18569;BME280;14780;48.316;-1.050;2023-07-30T04:31:46;99087.34;;;23.84;46.24
18569;BME280;14780;48.316;-1.050;2023-07-30T04:34:31;99092.56;;;23.85;46.25
18569;BME280;14780;48.316;-1.050;2023-07-30T04:37:16;99096.66;;;23.83;46.32
18569;BME280;14780;48.316;-1.050;2023-07-30T04:40:00;99106.22;;;23.85;46.21
18569;BME280;14780;48.316;-1.050;2023-07-30T04:42:45;99107.28;;;23.79;46.21
18569;BME280;14780;48.316;-1.050;2023-07-30T04:45:30;99104.56;;;23.79;46.37
18569;BME280;14780;48.316;-1.050;2023-07-30T04:48:15;99106.75;;;23.77;46.31
18569;BME280;14780;48.316;-1.050;2023-07-30T04:51:00;99095.25;;;23.75;46.32
18569;BME280;14780;48.316;-1.050;2023-07-30T04:53:44;99084.88;;;23.72;46.46
18569;BME280;14780;48.316;-1.050;2023-07-30T04:56:29;99086.53;;;23.73;46.34
18569;BME280;14780;48.316;-1.050;2023-07-30T04:59:14;99090.88;;;23.69;46.36
18569;BME280;14780;48.316;-1.050;2023-07-30T05:01:59;99101.28;;;23.72;46.27
18569;BME280;14780;48.316;-1.050;2023-07-30T05:04:44;99106.19;;;23.70;46.34
18569;BME280;14780;48.316;-1.050;2023-07-30T05:07:28;99102.06;;;23.73;46.29
18569;BME280;14780;48.316;-1.050;2023-07-30T05:10:13;99110.00;;;23.69;46.43
18569;BME280;14780;48.316;-1.050;2023-07-30T05:12:58;99103.47;;;23.70;46.42
18569;BME280;14780;48.316;-1.050;2023-07-30T05:15:43;99113.28;;;23.71;46.15
18569;BME280;14780;48.316;-1.050;2023-07-30T05:18:27;99109.72;;;23.66;46.49
18569;BME280;14780;48.316;-1.050;2023-07-30T05:21:12;99105.09;;;23.66;46.44
18569;BME280;14780;48.316;-1.050;2023-07-30T05:23:57;99113.03;;;23.68;46.34
18569;BME280;14780;48.316;-1.050;2023-07-30T05:26:41;99111.09;;;23.73;46.21
18569;BME280;14780;48.316;-1.050;2023-07-30T05:29:26;99116.56;;;23.73;46.30
18569;BME280;14780;48.316;-1.050;2023-07-30T05:32:10;99111.38;;;23.72;46.21
18569;BME280;14780;48.316;-1.050;2023-07-30T05:34:56;99117.66;;;23.67;46.22
18569;BME280;14780;48.316;-1.050;2023-07-30T05:37:42;99123.09;;;23.67;46.38
18569;BME280;14780;48.316;-1.050;2023-07-30T05:40:26;99122.31;;;23.67;46.40
18569;BME280;14780;48.316;-1.050;2023-07-30T05:43:11;99128.56;;;23.67;46.36
18569;BME280;14780;48.316;-1.050;2023-07-30T05:45:56;99126.94;;;23.66;46.38
18569;BME280;14780;48.316;-1.050;2023-07-30T05:48:40;99119.84;;;23.65;46.42
18569;BME280;14780;48.316;-1.050;2023-07-30T05:51:25;99113.81;;;23.68;46.40
18569;BME280;14780;48.316;-1.050;2023-07-30T05:54:10;99119.84;;;23.70;46.30
18569;BME280;14780;48.316;-1.050;2023-07-30T05:56:54;99121.44;;;23.61;46.60
18569;BME280;14780;48.316;-1.050;2023-07-30T05:59:39;99130.78;;;23.70;46.45
18569;BME280;14780;48.316;-1.050;2023-07-30T06:02:24;99131.03;;;23.69;46.35
18569;BME280;14780;48.316;-1.050;2023-07-30T06:05:08;99139.75;;;23.66;46.35
18569;BME280;14780;48.316;-1.050;2023-07-30T06:07:53;99138.69;;;23.67;46.46
18569;BME280;14780;48.316;-1.050;2023-07-30T06:10:39;99144.69;;;23.69;46.42
18569;BME280;14780;48.316;-1.050;2023-07-30T06:13:25;99146.59;;;23.68;46.38
18569;BME280;14780;48.316;-1.050;2023-07-30T06:16:10;99151.53;;;23.66;46.33
18569;BME280;14780;48.316;-1.050;2023-07-30T06:18:55;99153.72;;;23.64;46.31
18569;BME280;14780;48.316;-1.050;2023-07-30T06:21:39;99158.06;;;23.60;46.41
18569;BME280;14780;48.316;-1.050;2023-07-30T06:24:24;99161.31;;;23.62;46.32
18569;BME280;14780;48.316;-1.050;2023-07-30T06:27:08;99166.81;;;23.67;46.44
18569;BME280;14780;48.316;-1.050;2023-07-30T06:29:54;99169.03;;;23.70;46.41
18569;BME280;14780;48.316;-1.050;2023-07-30T06:32:38;99155.34;;;23.65;46.47
18569;BME280;14780;48.316;-1.050;2023-07-30T06:35:23;99152.34;;;23.67;46.31
18569;BME280;14780;48.316;-1.050;2023-07-30T06:38:08;99137.31;;;23.69;46.18
18569;BME280;14780;48.316;-1.050;2023-07-30T06:40:53;99141.69;;;23.65;46.37
18569;BME280;14780;48.316;-1.050;2023-07-30T06:43:38;99158.09;;;23.70;46.16
18569;BME280;14780;48.316;-1.050;2023-07-30T06:46:23;99159.16;;;23.59;46.57
18569;BME280;14780;48.316;-1.050;2023-07-30T06:49:07;99156.72;;;23.68;46.30
18569;BME280;14780;48.316;-1.050;2023-07-30T06:51:52;99163.00;;;23.68;46.35
18569;BME280;14780;48.316;-1.050;2023-07-30T06:54:36;99172.00;;;23.64;46.50
18569;BME280;14780;48.316;-1.050;2023-07-30T06:57:21;99170.66;;;23.66;46.31
18569;BME280;14780;48.316;-1.050;2023-07-30T07:00:06;99171.19;;;23.63;46.55
18569;BME280;14780;48.316;-1.050;2023-07-30T07:02:51;99172.81;;;23.64;46.41
18569;BME280;14780;48.316;-1.050;2023-07-30T07:05:36;99176.38;;;23.70;46.29
18569;BME280;14780;48.316;-1.050;2023-07-30T07:08:21;99180.50;;;23.72;46.41
18569;BME280;14780;48.316;-1.050;2023-07-30T07:11:06;99183.22;;;23.67;46.34
18569;BME280;14780;48.316;-1.050;2023-07-30T07:13:51;99183.75;;;23.64;46.41
18569;BME280;14780;48.316;-1.050;2023-07-30T07:16:36;99186.19;;;23.66;46.48
18569;BME280;14780;48.316;-1.050;2023-07-30T07:19:20;99189.78;;;23.71;46.40
18569;BME280;14780;48.316;-1.050;2023-07-30T07:22:05;99200.72;;;23.71;46.44
18569;BME280;14780;48.316;-1.050;2023-07-30T07:24:53;99191.94;;;23.69;46.33
18569;BME280;14780;48.316;-1.050;2023-07-30T07:27:37;99206.44;;;23.70;46.52
18569;BME280;14780;48.316;-1.050;2023-07-30T07:30:22;99203.44;;;23.66;46.31
18569;BME280;14780;48.316;-1.050;2023-07-30T07:33:06;99204.50;;;23.65;46.49
18569;BME280;14780;48.316;-1.050;2023-07-30T07:36:03;99193.63;;;23.70;46.25
18569;BME280;14780;48.316;-1.050;2023-07-30T07:38:49;99201.50;;;23.62;46.56
18569;BME280;14780;48.316;-1.050;2023-07-30T07:41:33;99205.59;;;23.64;46.44
18569;BME280;14780;48.316;-1.050;2023-07-30T07:44:18;99205.59;;;23.64;46.62
18569;BME280;14780;48.316;-1.050;2023-07-30T07:47:03;99214.34;;;23.66;46.54
18569;BME280;14780;48.316;-1.050;2023-07-30T07:49:48;99210.53;;;23.67;46.53
18569;BME280;14780;48.316;-1.050;2023-07-30T07:52:34;99212.16;;;23.68;46.46
18569;BME280;14780;48.316;-1.050;2023-07-30T07:55:18;99218.72;;;23.67;46.54
18569;BME280;14780;48.316;-1.050;2023-07-30T07:58:03;99205.06;;;23.67;46.38
18569;BME280;14780;48.316;-1.050;2023-07-30T08:00:48;99210.00;;;23.70;46.44
18569;BME280;14780;48.316;-1.050;2023-07-30T08:03:32;99210.53;;;23.67;46.58
18569;BME280;14780;48.316;-1.050;2023-07-30T08:06:17;99215.19;;;23.72;46.37
18569;BME280;14780;48.316;-1.050;2023-07-30T08:09:02;99209.44;;;23.68;46.41
18569;BME280;14780;48.316;-1.050;2023-07-30T08:11:46;99211.91;;;23.70;46.47
18569;BME280;14780;48.316;-1.050;2023-07-30T08:14:31;99206.16;;;23.66;46.58
18569;BME280;14780;48.316;-1.050;2023-07-30T08:17:15;99210.56;;;23.77;46.40
18569;BME280;14780;48.316;-1.050;2023-07-30T08:20:00;99218.50;;;23.74;46.72
18569;BME280;14780;48.316;-1.050;2023-07-30T08:22:45;99222.03;;;23.74;46.60
18569;BME280;14780;48.316;-1.050;2023-07-30T08:25:29;99218.19;;;23.75;46.69
18569;BME280;14780;48.316;-1.050;2023-07-30T08:28:14;99220.94;;;23.70;46.59
18569;BME280;14780;48.316;-1.050;2023-07-30T08:31:02;99210.56;;;23.77;46.49
18569;BME280;14780;48.316;-1.050;2023-07-30T08:33:47;99223.66;;;23.75;46.63
18569;BME280;14780;48.316;-1.050;2023-07-30T08:36:32;99240.06;;;23.75;46.61
18569;BME280;14780;48.316;-1.050;2023-07-30T08:39:17;99236.78;;;23.73;46.83
18569;BME280;14780;48.316;-1.050;2023-07-30T08:42:03;99240.34;;;23.79;46.67
18569;BME280;14780;48.316;-1.050;2023-07-30T08:44:48;99238.69;;;23.78;46.76
18569;BME280;14780;48.316;-1.050;2023-07-30T08:47:33;99247.44;;;23.80;46.59
18569;BME280;14780;48.316;-1.050;2023-07-30T08:50:18;99243.38;;;23.77;46.89
18569;BME280;14780;48.316;-1.050;2023-07-30T08:53:03;99244.44;;;23.76;46.73
18569;BME280;14780;48.316;-1.050;2023-07-30T08:55:48;99245.53;;;23.75;46.81
18569;BME280;14780;48.316;-1.050;2023-07-30T08:58:33;99251.63;;;23.87;46.62
18569;BME280;14780;48.316;-1.050;2023-07-30T09:01:20;99255.44;;;23.91;46.48
18569;BME280;14780;48.316;-1.050;2023-07-30T09:04:06;99253.50;;;23.87;46.72
18569;BME280;14780;48.316;-1.050;2023-07-30T09:06:51;99260.91;;;23.86;46.74
18569;BME280;14780;48.316;-1.050;2023-07-30T09:09:37;99263.38;;;23.93;46.55
18569;BME280;14780;48.316;-1.050;2023-07-30T09:12:30;99258.75;;;23.93;46.60
18569;BME280;14780;48.316;-1.050;2023-07-30T09:15:16;99258.75;;;23.98;46.33
18569;BME280;14780;48.316;-1.050;2023-07-30T09:18:01;99258.47;;;24.00;46.41
18569;BME280;14780;48.316;-1.050;2023-07-30T09:20:47;99260.13;;;23.96;46.52
18569;BME280;14780;48.316;-1.050;2023-07-30T09:23:32;99256.59;;;24.00;46.30
18569;BME280;14780;48.316;-1.050;2023-07-30T09:26:16;99261.47;;;23.98;46.29
18569;BME280;14780;48.316;-1.050;2023-07-30T09:29:01;99260.13;;;24.01;46.25
18569;BME280;14780;48.316;-1.050;2023-07-30T09:31:47;99262.84;;;24.01;46.47
18569;BME280;14780;48.316;-1.050;2023-07-30T09:34:32;99259.03;;;24.02;46.38
18569;BME280;14780;48.316;-1.050;2023-07-30T09:37:17;99262.59;;;24.02;46.25
18569;BME280;14780;48.316;-1.050;2023-07-30T09:40:02;99271.91;;;24.11;46.13
18569;BME280;14780;48.316;-1.050;2023-07-30T09:42:48;99270.28;;;24.15;45.93
18569;BME280;14780;48.316;-1.050;2023-07-30T09:45:35;99272.47;;;24.13;45.96
18569;BME280;14780;48.316;-1.050;2023-07-30T09:48:21;99272.75;;;24.22;45.83
18569;BME280;14780;48.316;-1.050;2023-07-30T09:51:05;99273.59;;;24.22;45.85
18569;BME280;14780;48.316;-1.050;2023-07-30T09:53:51;99281.78;;;24.17;45.63
18569;BME280;14780;48.316;-1.050;2023-07-30T09:56:37;99282.31;;;24.19;45.60
18569;BME280;14780;48.316;-1.050;2023-07-30T09:59:23;99282.88;;;24.21;45.65
18569;BME280;14780;48.316;-1.050;2023-07-30T10:02:09;99292.19;;;24.20;45.70
18569;BME280;14780;48.316;-1.050;2023-07-30T10:04:57;99293.28;;;24.29;45.69
18569;BME280;14780;48.316;-1.050;2023-07-30T10:08:05;99293.81;;;24.26;45.69
18569;BME280;14780;48.316;-1.050;2023-07-30T10:10:53;99295.47;;;24.32;45.78
18569;BME280;14780;48.316;-1.050;2023-07-30T10:13:40;99298.47;;;24.31;45.73
18569;BME280;14780;48.316;-1.050;2023-07-30T10:16:27;99296.59;;;24.36;45.72
18569;BME280;14780;48.316;-1.050;2023-07-30T10:19:12;99299.03;;;24.38;45.48
18569;BME280;14780;48.316;-1.050;2023-07-30T10:22:23;99299.31;;;24.31;45.62
18569;BME280;14780;48.316;-1.050;2023-07-30T10:25:12;99306.69;;;24.36;45.73
18569;BME280;14780;48.316;-1.050;2023-07-30T10:27:58;99294.94;;;24.30;45.72
18569;BME280;14780;48.316;-1.050;2023-07-30T10:31:05;99308.63;;;24.35;45.62
18569;BME280;14780;48.316;-1.050;2023-07-30T10:33:55;99303.69;;;24.37;45.74
18569;BME280;14780;48.316;-1.050;2023-07-30T10:36:48;99306.16;;;24.34;45.72
18569;BME280;14780;48.316;-1.050;2023-07-30T10:39:33;99302.06;;;24.36;45.70
18569;BME280;14780;48.316;-1.050;2023-07-30T10:42:19;99308.63;;;24.40;45.79
18569;BME280;14780;48.316;-1.050;2023-07-30T10:45:07;99313.00;;;24.41;45.72
18569;BME280;14780;48.316;-1.050;2023-07-30T10:47:52;99304.78;;;24.41;45.72
18569;BME280;14780;48.316;-1.050;2023-07-30T10:50:38;99306.97;;;24.39;45.84
18569;BME280;14780;48.316;-1.050;2023-07-30T10:53:22;99312.44;;;24.39;45.81
18569;BME280;14780;48.316;-1.050;2023-07-30T10:56:07;99309.44;;;24.41;45.71
18569;BME280;14780;48.316;-1.050;2023-07-30T10:58:54;99305.91;;;24.45;45.44
18569;BME280;14780;48.316;-1.050;2023-07-30T11:01:41;99297.44;;;24.47;45.57
18569;BME280;14780;48.316;-1.050;2023-07-30T11:04:26;99298.25;;;24.47;45.54
18569;BME280;14780;48.316;-1.050;2023-07-30T11:07:17;99302.09;;;24.56;45.40
18569;BME280;14780;48.316;-1.050;2023-07-30T11:10:03;99307.53;;;24.46;45.81
18569;BME280;14780;48.316;-1.050;2023-07-30T11:12:49;99304.03;;;24.56;45.47
18569;BME280;14780;48.316;-1.050;2023-07-30T11:15:44;99296.34;;;24.53;45.67
18569;BME280;14780;48.316;-1.050;2023-07-30T11:18:31;99304.31;;;24.59;45.63
18569;BME280;14780;48.316;-1.050;2023-07-30T11:21:19;99300.75;;;24.59;45.57
18569;BME280;14780;48.316;-1.050;2023-07-30T11:24:03;99311.94;;;24.52;45.79
18569;BME280;14780;48.316;-1.050;2023-07-30T11:26:59;99308.09;;;24.53;45.73
18569;BME280;14780;48.316;-1.050;2023-07-30T11:29:54;99302.09;;;24.56;45.69
18569;BME280;14780;48.316;-1.050;2023-07-30T11:32:39;99297.16;;;24.53;45.82
18569;BME280;14780;48.316;-1.050;2023-07-30T11:35:25;99292.84;;;24.57;45.74
18569;BME280;14780;48.316;-1.050;2023-07-30T11:38:10;99291.16;;;24.56;45.85
18569;BME280;14780;48.316;-1.050;2023-07-30T11:40:56;99302.13;;;24.61;45.70
18569;BME280;14780;48.316;-1.050;2023-07-30T11:43:43;99291.19;;;24.61;45.64
18569;BME280;14780;48.316;-1.050;2023-07-30T11:46:28;99289.56;;;24.65;45.71
18569;BME280;14780;48.316;-1.050;2023-07-30T11:49:15;99285.72;;;24.66;45.70
18569;BME280;14780;48.316;-1.050;2023-07-30T11:52:07;99289.81;;;24.69;45.66
18569;BME280;14780;48.316;-1.050;2023-07-30T11:55:04;99297.22;;;24.78;45.50
18569;BME280;14780;48.316;-1.050;2023-07-30T11:57:50;99296.41;;;24.83;45.38
18569;BME280;14780;48.316;-1.050;2023-07-30T12:00:35;99294.19;;;24.85;45.33
18569;BME280;14780;48.316;-1.050;2023-07-30T12:03:21;99287.91;;;24.89;45.39
18569;BME280;14780;48.316;-1.050;2023-07-30T12:06:06;99290.38;;;24.86;45.36
18569;BME280;14780;48.316;-1.050;2023-07-30T12:08:52;99285.16;;;24.89;45.35
18569;BME280;14780;48.316;-1.050;2023-07-30T12:11:54;99301.31;;;24.86;45.47
18569;BME280;14780;48.316;-1.050;2023-07-30T12:17:33;99289.81;;;24.94;45.27
18569;BME280;14780;48.316;-1.050;2023-07-30T12:20:18;99291.72;;;24.98;45.44
18569;BME280;14780;48.316;-1.050;2023-07-30T12:23:02;99293.91;;;24.91;45.37
18569;BME280;14780;48.316;-1.050;2023-07-30T12:25:47;99293.38;;;24.94;45.23
18569;BME280;14780;48.316;-1.050;2023-07-30T12:28:33;99297.22;;;24.93;45.28
18569;BME280;14780;48.316;-1.050;2023-07-30T12:31:21;99288.47;;;25.01;45.13
18569;BME280;14780;48.316;-1.050;2023-07-30T12:34:05;99296.09;;;24.99;45.22
18569;BME280;14780;48.316;-1.050;2023-07-30T12:36:51;99285.72;;;24.96;45.26
18569;BME280;14780;48.316;-1.050;2023-07-30T12:39:35;99289.81;;;24.99;45.26
18569;BME280;14780;48.316;-1.050;2023-07-30T12:42:20;99288.47;;;25.01;45.32
18569;BME280;14780;48.316;-1.050;2023-07-30T12:45:04;99285.72;;;24.96;45.28
18569;BME280;14780;48.316;-1.050;2023-07-30T12:47:49;99291.19;;;24.96;45.14
18569;BME280;14780;48.316;-1.050;2023-07-30T12:50:34;99290.34;;;24.96;45.41
18569;BME280;14780;48.316;-1.050;2023-07-30T12:53:18;99297.50;;;24.92;45.61
18569;BME280;14780;48.316;-1.050;2023-07-30T12:56:03;99301.03;;;25.02;45.50
18569;BME280;14780;48.316;-1.050;2023-07-30T12:58:48;99299.69;;;25.00;45.31
18569;BME280;14780;48.316;-1.050;2023-07-30T13:01:33;99299.41;;;24.96;45.56
18569;BME280;14780;48.316;-1.050;2023-07-30T13:04:17;99295.56;;;24.92;45.58
18569;BME280;14780;48.316;-1.050;2023-07-30T13:07:02;99299.94;;;24.98;45.58
18569;BME280;14780;48.316;-1.050;2023-07-30T13:09:47;99301.59;;;24.94;45.53
18569;BME280;14780;48.316;-1.050;2023-07-30T13:12:32;99301.03;;;24.92;45.61
18569;BME280;14780;48.316;-1.050;2023-07-30T13:15:16;99306.25;;;24.94;45.46
18569;BME280;14780;48.316;-1.050;2023-07-30T13:18:01;99308.19;;;24.93;45.61
18569;BME280;14780;48.316;-1.050;2023-07-30T13:20:46;99308.72;;;24.90;45.71
18569;BME280;14780;48.316;-1.050;2023-07-30T13:23:32;99313.66;;;24.93;45.68
18569;BME280;14780;48.316;-1.050;2023-07-30T13:26:17;99309.81;;;24.94;45.71
18569;BME280;14780;48.316;-1.050;2023-07-30T13:29:02;99311.75;;;24.89;45.84
18569;BME280;14780;48.316;-1.050;2023-07-30T13:31:47;99309.00;;;24.89;45.84
18569;BME280;14780;48.316;-1.050;2023-07-30T13:34:32;99315.81;;;24.91;45.89
18569;BME280;14780;48.316;-1.050;2023-07-30T13:37:17;99313.66;;;24.93;45.93
18569;BME280;14780;48.316;-1.050;2023-07-30T13:40:01;99312.25;;;24.96;45.95
18569;BME280;14780;48.316;-1.050;2023-07-30T13:42:46;99311.72;;;24.99;46.11
18569;BME280;14780;48.316;-1.050;2023-07-30T13:45:31;99312.56;;;24.94;46.28
18569;BME280;14780;48.316;-1.050;2023-07-30T13:48:17;99318.56;;;25.01;46.00
18569;BME280;14780;48.316;-1.050;2023-07-30T13:51:01;99320.47;;;25.01;46.03
18569;BME280;14780;48.316;-1.050;2023-07-30T13:53:47;99324.03;;;25.06;45.94
18569;BME280;14780;48.316;-1.050;2023-07-30T13:56:31;99309.78;;;25.04;46.02
18569;BME280;14780;48.316;-1.050;2023-07-30T13:59:16;99307.31;;;25.03;46.31
18569;BME280;14780;48.316;-1.050;2023-07-30T14:02:01;99310.06;;;25.08;46.22
18569;BME280;14780;48.316;-1.050;2023-07-30T14:04:46;99316.91;;;25.10;46.35
18569;BME280;14780;48.316;-1.050;2023-07-30T14:07:31;99315.81;;;25.06;46.28
18569;BME280;14780;48.316;-1.050;2023-07-30T14:10:15;99315.81;;;25.11;46.21
18569;BME280;14780;48.316;-1.050;2023-07-30T14:13:00;99310.88;;;25.13;46.12
18569;BME280;14780;48.316;-1.050;2023-07-30T14:15:45;99309.25;;;25.07;46.23
18569;BME280;14780;48.316;-1.050;2023-07-30T14:18:29;99299.13;;;25.08;46.13
18569;BME280;14780;48.316;-1.050;2023-07-30T14:21:14;99318.03;;;25.14;46.00
18569;BME280;14780;48.316;-1.050;2023-07-30T14:23:59;99298.84;;;25.09;46.04
18569;BME280;14780;48.316;-1.050;2023-07-30T14:26:43;99304.88;;;25.11;46.13
18569;BME280;14780;48.316;-1.050;2023-07-30T14:29:28;99302.66;;;25.13;46.13
18569;BME280;14780;48.316;-1.050;2023-07-30T14:32:13;99288.97;;;25.13;46.08